TimeEST,TemperatureF,Dew PointF,Humidity,Sea Level PressureIn,VisibilityMPH,Wind Direction,Wind SpeedMPH,Gust SpeedMPH,PrecipitationIn,Events,Conditions,WindDirDegrees,DateUTC
12:07 AM,48.2,35.6,62,30.21,10.0,NNE,5.8,-,N/A,,Overcast,30,2012-12-07 05:07:00
12:55 AM,47.8,35.1,61,30.20,10.0,NE,4.6,-,N/A,,Overcast,40,2012-12-07 05:55:00
1:55 AM,47.7,35.2,62,30.19,10.0,NE,4.6,-,N/A,,Overcast,40,2012-12-07 06:55:00
2:55 AM,47.5,35.8,64,30.18,10.0,NNE,5.8,-,N/A,,Overcast,30,2012-12-07 07:55:00
3:55 AM,47.5,36.3,65,30.17,10.0,NNE,5.8,-,N/A,,Overcast,30,2012-12-07 08:55:00
4:55 AM,47.5,36.9,67,30.16,10.0,NE,5.8,-,N/A,,Overcast,50,2012-12-07 09:55:00
5:55 AM,47.7,37.4,68,30.17,10.0,NE,6.9,-,N/A,,Overcast,50,2012-12-07 10:55:00
6:32 AM,48.2,37.4,66,30.17,10.0,NE,8.1,-,N/A,,Light Drizzle,50,2012-12-07 11:32:00
6:42 AM,48.2,39.2,71,30.17,10.0,NE,5.8,-,N/A,,Overcast,50,2012-12-07 11:42:00
6:55 AM,47.5,38.3,70,30.17,10.0,ENE,9.2,-,0.00,,Overcast,60,2012-12-07 11:55:00
7:00 AM,48.2,39.2,71,30.17,10.0,NE,9.2,-,N/A,,Light Drizzle,50,2012-12-07 12:00:00
7:09 AM,48.2,39.2,71,30.17,10.0,ENE,6.9,-,N/A,,Overcast,70,2012-12-07 12:09:00
7:32 AM,48.2,39.2,71,30.17,10.0,ENE,5.8,-,N/A,,Overcast,60,2012-12-07 12:32:00
7:40 AM,48.2,39.2,71,30.16,10.0,East,6.9,-,N/A,,Overcast,80,2012-12-07 12:40:00
7:46 AM,48.2,39.2,71,30.16,10.0,ENE,8.1,-,N/A,,Overcast,60,2012-12-07 12:46:00
7:55 AM,47.7,38.8,71,30.16,10.0,ENE,6.9,-,0.00,,Overcast,60,2012-12-07 12:55:00
8:03 AM,48.2,39.2,71,30.16,10.0,ENE,8.1,-,N/A,,Overcast,70,2012-12-07 13:03:00
8:31 AM,48.2,39.2,71,30.17,10.0,ENE,6.9,-,N/A,,Overcast,70,2012-12-07 13:31:00
8:55 AM,48.4,39.9,73,30.16,10.0,ENE,5.8,-,N/A,,Overcast,70,2012-12-07 13:55:00
9:41 AM,50.0,41.0,71,30.16,10.0,ENE,6.9,-,N/A,,Mostly Cloudy,70,2012-12-07 14:41:00
9:48 AM,50.0,41.0,71,30.16,10.0,ENE,6.9,-,N/A,,Overcast,60,2012-12-07 14:48:00
9:55 AM,50.4,41.4,71,30.16,10.0,East,5.8,-,N/A,,Overcast,80,2012-12-07 14:55:00
10:55 AM,51.8,43.0,72,30.14,10.0,East,3.5,-,N/A,,Overcast,90,2012-12-07 15:55:00
11:28 AM,53.6,42.8,67,30.12,10.0,ENE,4.6,-,N/A,,Overcast,70,2012-12-07 16:28:00
11:55 AM,54.9,44.6,68,30.10,10.0,Calm,Calm,-,N/A,,Mostly Cloudy,0,2012-12-07 16:55:00
11:56 AM,55.4,44.6,67,30.10,10.0,Calm,Calm,-,N/A,,Mostly Cloudy,0,2012-12-07 16:56:00
12:32 PM,57.2,46.4,67,30.08,10.0,ENE,4.6,-,N/A,,Mostly Cloudy,70,2012-12-07 17:32:00
12:48 PM,59.0,48.2,67,30.07,10.0,ENE,5.8,-,N/A,,Mostly Cloudy,60,2012-12-07 17:48:00
12:55 PM,58.3,47.3,67,30.06,10.0,ENE,4.6,-,N/A,,Mostly Cloudy,60,2012-12-07 17:55:00
1:20 PM,60.8,46.4,59,30.05,1.5,Calm,Calm,-,N/A,,Haze,0,2012-12-07 18:20:00
1:21 PM,60.8,46.4,59,30.05,1.2,Calm,Calm,-,N/A,,Haze,0,2012-12-07 18:21:00
1:23 PM,62.6,44.6,52,30.05,10.0,Calm,Calm,-,N/A,,Mostly Cloudy,0,2012-12-07 18:23:00
1:31 PM,60.8,50.0,68,30.03,10.0,ENE,4.6,-,N/A,,Overcast,70,2012-12-07 18:31:00
1:55 PM,61.0,48.9,64,30.04,10.0,NE,3.5,-,N/A,,Overcast,50,2012-12-07 18:55:00
2:14 PM,60.8,50.0,68,30.04,10.0,ENE,3.5,-,N/A,,Overcast,60,2012-12-07 19:14:00
2:55 PM,61.0,50.0,67,30.02,10.0,Calm,Calm,-,N/A,,Overcast,0,2012-12-07 19:55:00
3:55 PM,60.3,50.5,70,30.03,10.0,East,4.6,-,N/A,,Overcast,90,2012-12-07 20:55:00
4:55 PM,59.4,50.5,73,30.03,10.0,ENE,4.6,-,N/A,,Overcast,60,2012-12-07 21:55:00
5:40 PM,59.0,50.0,72,30.02,10.0,NNE,4.6,-,N/A,,Light Drizzle,30,2012-12-07 22:40:00
5:55 PM,57.9,52.0,81,30.02,10.0,Calm,Calm,-,0.00,,Overcast,0,2012-12-07 22:55:00
6:43 PM,57.2,51.8,82,30.03,10.0,NNW,3.5,-,N/A,,Light Drizzle,330,2012-12-07 23:43:00
6:44 PM,57.2,51.8,82,30.03,9.0,NNW,3.5,-,N/A,,Light Drizzle,330,2012-12-07 23:44:00
6:51 PM,57.2,51.8,82,30.03,7.0,NW,3.5,-,N/A,,Light Drizzle,310,2012-12-07 23:51:00
6:52 PM,57.2,51.8,82,30.03,6.0,NW,3.5,-,N/A,,Light Drizzle,320,2012-12-07 23:52:00
6:55 PM,56.5,52.7,87,30.04,5.0,NNW,4.6,-,0.00,Rain,Light Rain,330,2012-12-07 23:55:00
6:56 PM,55.4,53.6,94,30.04,5.0,NNW,4.6,-,N/A,Rain,Light Rain,330,2012-12-07 23:56:00
6:58 PM,55.4,53.6,94,30.04,5.0,NNW,4.6,-,N/A,Rain,Light Rain,340,2012-12-07 23:58:00
7:05 PM,55.4,53.6,94,30.04,6.0,NNW,4.6,-,N/A,Rain,Light Rain,340,2012-12-08 00:05:00
7:09 PM,55.4,53.6,94,30.04,7.0,NNW,4.6,-,N/A,,Drizzle,340,2012-12-08 00:09:00
7:15 PM,55.4,53.6,94,30.04,9.0,North,3.5,-,N/A,,Light Drizzle,350,2012-12-08 00:15:00
7:16 PM,55.4,53.6,94,30.04,10.0,North,4.6,-,N/A,,Light Drizzle,360,2012-12-08 00:16:00
7:18 PM,53.6,53.6,100,30.04,10.0,North,4.6,-,N/A,,Light Drizzle,10,2012-12-08 00:18:00
7:20 PM,53.6,53.6,100,30.04,10.0,NNE,5.8,-,N/A,,Overcast,20,2012-12-08 00:20:00
7:24 PM,53.6,53.6,100,30.04,10.0,North,4.6,-,N/A,,Light Drizzle,10,2012-12-08 00:24:00
7:29 PM,53.6,51.8,94,30.04,9.0,North,5.8,-,N/A,Rain,Light Rain,10,2012-12-08 00:29:00
7:33 PM,53.6,51.8,94,30.04,8.0,North,4.6,-,N/A,Rain,Light Rain,360,2012-12-08 00:33:00
7:36 PM,53.6,51.8,94,30.04,8.0,North,5.8,-,N/A,Rain,Light Rain,360,2012-12-08 00:36:00
7:44 PM,53.6,51.8,94,30.04,10.0,NNW,3.5,-,N/A,,Light Drizzle,340,2012-12-08 00:44:00
7:46 PM,53.6,51.8,94,30.03,10.0,North,3.5,-,N/A,,Light Drizzle,360,2012-12-08 00:46:00
7:55 PM,52.7,51.8,97,30.03,10.0,North,3.5,-,0.01,,Light Drizzle,350,2012-12-08 00:55:00
7:58 PM,53.6,51.8,94,30.03,10.0,North,4.6,-,N/A,,Overcast,350,2012-12-08 00:58:00
8:21 PM,51.8,51.8,100,30.03,9.0,North,3.5,-,N/A,,Light Drizzle,350,2012-12-08 01:21:00
8:50 PM,51.8,51.8,100,30.03,5.0,Calm,Calm,-,N/A,,Light Drizzle,0,2012-12-08 01:50:00
8:55 PM,52.2,51.4,97,30.03,6.0,Calm,Calm,-,0.01,,Light Drizzle,0,2012-12-08 01:55:00
8:57 PM,51.8,51.8,100,30.03,7.0,Calm,Calm,-,N/A,,Overcast,0,2012-12-08 01:57:00
9:05 PM,51.8,51.8,100,30.03,5.0,Calm,Calm,-,N/A,,Light Drizzle,0,2012-12-08 02:05:00
9:06 PM,51.8,51.8,100,30.03,5.0,Calm,Calm,-,N/A,,Light Drizzle,0,2012-12-08 02:06:00
9:12 PM,51.8,51.8,100,30.02,3.0,Calm,Calm,-,N/A,,Light Drizzle,0,2012-12-08 02:12:00
9:16 PM,51.8,51.8,100,30.02,4.0,Calm,Calm,-,N/A,,Light Drizzle,0,2012-12-08 02:16:00
9:21 PM,51.8,51.8,100,30.02,5.0,Calm,Calm,-,N/A,,Light Drizzle,0,2012-12-08 02:21:00
9:23 PM,51.8,51.8,100,30.02,6.0,Calm,Calm,-,N/A,,Overcast,0,2012-12-08 02:23:00
9:24 PM,51.8,51.8,100,30.02,7.0,Calm,Calm,-,N/A,,Overcast,0,2012-12-08 02:24:00
9:55 PM,52.3,51.4,97,30.02,10.0,Variable,3.5,-,0.00,,Overcast,0,2012-12-08 02:55:00
10:54 PM,51.8,51.8,100,30.02,10.0,Calm,Calm,-,N/A,,Light Drizzle,0,2012-12-08 03:54:00
10:55 PM,52.7,51.8,97,30.02,9.0,Calm,Calm,-,0.01,,Light Drizzle,0,2012-12-08 03:55:00
11:02 PM,51.8,51.8,100,30.02,7.0,Calm,Calm,-,N/A,,Light Drizzle,0,2012-12-08 04:02:00
11:11 PM,51.8,51.8,100,30.02,7.0,NNW,3.5,-,N/A,,Light Drizzle,330,2012-12-08 04:11:00
11:22 PM,51.8,51.8,100,30.02,8.0,Calm,Calm,-,N/A,,Light Drizzle,0,2012-12-08 04:22:00
11:27 PM,51.8,51.8,100,30.01,8.0,Calm,Calm,-,N/A,,Light Drizzle,0,2012-12-08 04:27:00
11:28 PM,51.8,51.8,100,30.01,8.0,Calm,Calm,-,N/A,,Overcast,0,2012-12-08 04:28:00
11:55 PM,52.5,51.6,97,30.01,10.0,Calm,Calm,-,0.00,,Overcast,0,2012-12-08 04:55:00